Dauntless Aviation
Airports Europe France
LFIY

Saint Jean d'Angely

FRANCE

Airport Info
Suggest Updated Information for this Airport

Location

Latitude / Longitude: 45°57'59"N / 0°31'31"W
  45°57.984'N / 0°31.518'W
  45.9664 / -0.5253

Runway Information

Runway 10 /28

Dimensions: 2789 x 164 ft.
Surface: U
 
Runway 10
Runway 28
Latitude: 45.966636 45.965728
Longitude: -0.528086 -0.518369
Elevation: 243 ft. 243 ft.
Runway true heading: 95.7 275.7
 

Instrument Procedures

IAPs (Instrument Approach Procedures)

  Visual Approch Chart
Satellite photo at:
Airport distance calculator
From:
Weather Reports

METAR

LFBG
20.0nm SE
LFBG 131230Z AUTO 26023KT 9000 OVC036 13/07 Q0994
LFBH
27.2nm W
LFBH 131230Z AUTO 26030G41KT 8000 FEW033 SCT040 BKN047 13/08 Q0991
LFBU
34.5nm E
LFBU 131230Z AUTO 26024G38KT 9000 FEW027 BKN035 BKN049 12/07 Q0993

TAF

LFBG
20.0nm SE
TAF LFBG 131100Z 1312/1412 22020G35KT 9999 NSW SCT025 TEMPO 1312/1315 22025G45KT 4000 SHRA BKN020TCU BECMG 1316/1318 26015KT TEMPO 1400/1406 4000 -RA BKN015
LFBH
27.2nm W
TAF LFBH 131100Z 1312/1412 25025G40KT 9999 SCT030 SCT050 TEMPO 1312/1320 3000 SHRA SCT005 BKN015TCU PROB30 TEMPO 1312/1315 26035G55KT BECMG 1322/1324 24015KT 5000 -RA SCT005 BKN015 PROB30 TEMPO 1400/1405 3000 RA BKN005 BECMG 1405/1408 26015G25KT 9999 NSW SCT020 TEMPO 1406/1412 26020G35KT 3000 SHRA BKN015TCU SCT020CB PROB30 TEMPO 1409/1412 TSRA BKN015CB
LFBU
34.5nm E
TAF LFBU 131100Z 1312/1412 26020G35KT 9999 BKN020 PROB40 TEMPO 1312/1318 3000 SHRA BKN015TCU SCT020CB PROB30 TEMPO 1312/1315 26030G45KT BECMG 1318/1321 25010KT BECMG 1321/1324 5000 -RA SCT005 BKN015 TEMPO 1400/1406 2000 RA BKN005 BECMG 1406/1409 9999 NSW BKN020 TEMPO 1406/1412 26015G30KT 3000 SHRA BKN015TCU SCT020
Safelog

 

Dauntless Aviation

© 2007-2016 Dauntless Aviation, all rights reserved
Information provided via PilotNav comes from a variety of official and unofficial data sources. As errors are possible, do not use PilotNav for primary flight planning purposes. Verify any information that you receive via PilotNav with current and canonical charts and other official documents. The material in this database is subject to database copyrights held by Dauntless Aviation and may not be copied without the express permission of Dauntless Aviation - licenses for use of part of all of this data are available for purchase; enquire via the Dauntless Aviation helpdesk. A number of mechanisms and markers exist in the database to protect against and identify infringement / copyright. Automated queries against this website are stictly prohibited, and all activity is logged and analyzed.